メインページ
METAR-TAF:

METAR-TAF

空港 :

ワシントン州, バージニア州, アメリカ合衆国

ワシントン・ダレス国際空港

緯度: 38-56-05N, 経度: 077-26-51W, 海抜: 95m

現時点の気象観測

当レポートは47分前の09:52(UTC)に作成
西/北西の風 24kt、最大34ktの突風を伴う
気温 13°C
湿度 62%
気圧 997 hPa
視程: 16.1km
高度3600ftの雲はほとんどない
高度4500ftの雲は散在している
高度5500ftの曇り

METAR: KIAD 190952Z 30024G34KT 10SM FEW036 SCT045 OVC055 13/06 A2943 RMK AO2 PK WND 29039/0928 RAE09 PRESRR SLP964 P0002 T01280056

時間: 05:39 (10:39 UTC)

予報

当レポートは34分前の10:05(UTC)に作成
予報は19日の 10時(UTC)から 20日の 12時(UTC)まで有効
西/北西の風 22kt、最大38ktの突風を伴う
視程: 10km
高度4500ftの曇り
19日の 1200時(UTC)から
西/北西の風 23kt、最大40ktの突風を伴う
視程: 10km
高度4000ftの雲は散在している
19日の 1800時(UTC)から
西/北西の風 18kt、最大30ktの突風を伴う
視程: 10km
高度4000ftの雲は散在している
20日の 0000時(UTC)から
西/北西の風 12kt、最大20ktの突風を伴う
視程: 10km
高度4000ftの雲は散在している
20日の 0600時(UTC)から
西/北西の風 10kt、最大17ktの突風を伴う
視程: 10km
高度4000ftの雲は散在している

TAF: KIAD 191005Z 1910/2012 29022G38KT P6SM OVC045 FM191200 29023G40KT P6SM SCT040 FM191800 30018G30KT P6SM SCT040 FM200000 30012G20KT P6SM SCT040 FM200600 29010G17KT P6SM SCT040

4,000以上の空港の気象観測と天気予報(METAR報とTAF報)

利用可能な観測所は地図上に黄色い丸と赤い丸で示す。

丸の上にカーソルを重ねると観測所名を参照できる。

次にクリックすると気象観測と天気予報を参照できる。

マップの切り替え:黒色「×」印の緑ボタンをクリックして拡大、「-」印の緑ボタンをクリックして縮小、緑色の三角印をクリックして隣りの地図に切り替え


METAR-TAF: